Weather at Grantley Adams International Airport

Public forecast

Using degrees Celsius for public forecast. Weather courtesy of forecast.io.

Current aviation weather report (METAR) for Grantley Adams International Airport

Report is more than 6 hours old.

Retrieved 2022/09/17 19:00 UTC (12 days ago):

TBPB 171900Z 12013KT 9999 -SHRA VCSH BKN014 30/25 Q1010 NOSIG

Aviation forecast (TAF) for Grantley Adams International Airport

Forecast is more than 12 hours old.

Retrieved 2022/09/17 18:08 UTC (13 days ago):

TAF TBPB 171700Z 1718/1818 13016KT 9999 SCT016 PROB30 TEMPO 1803/1809 SHRA BKN012